createdAt,value
2023-02-23T00:02:07.620Z,8.34
2023-02-23T00:04:36.034Z,8.38
2023-02-23T00:07:04.140Z,8.38
2023-02-23T00:09:35.499Z,8.35
2023-02-23T00:12:08.986Z,8.38
2023-02-23T00:14:37.772Z,8.41
2023-02-23T00:17:10.879Z,8.43
2023-02-23T00:19:37.832Z,8.44
2023-02-23T00:22:04.891Z,8.40
2023-02-23T00:24:36.519Z,8.41
2023-02-23T00:27:06.517Z,8.45
2023-02-23T00:29:39.381Z,8.52
2023-02-23T00:32:06.630Z,8.54
2023-02-23T00:34:34.792Z,8.49
2023-02-23T00:37:01.652Z,8.45
2023-02-23T00:39:31.480Z,8.45
2023-02-23T00:42:03.195Z,8.41
2023-02-23T00:44:32.443Z,8.33
2023-02-23T00:47:00.298Z,8.26
2023-02-23T00:49:27.493Z,8.29
2023-02-23T00:51:54.279Z,8.36
2023-02-23T00:54:22.286Z,8.36
2023-02-23T00:56:52.621Z,8.43
2023-02-23T00:59:20.538Z,8.48
2023-02-23T01:01:48.533Z,8.47
2023-02-23T01:04:16.602Z,8.38
2023-02-23T01:06:43.530Z,8.33
2023-02-23T01:09:16.814Z,8.31
2023-02-23T01:11:46.790Z,8.32
2023-02-23T01:14:14.158Z,8.34
2023-02-23T01:16:41.142Z,8.36
2023-02-23T01:19:08.357Z,8.30
2023-02-23T01:21:39.674Z,8.31
2023-02-23T01:24:07.014Z,8.33
2023-02-23T01:26:41.769Z,8.34
2023-02-23T01:29:17.990Z,8.36
2023-02-23T01:31:51.335Z,8.34
2023-02-23T01:34:21.596Z,8.37
2023-02-23T01:36:48.546Z,8.36
2023-02-23T01:39:20.156Z,8.29
2023-02-23T01:41:47.107Z,8.32
2023-02-23T01:44:13.859Z,8.34
2023-02-23T01:46:46.439Z,8.34
2023-02-23T01:49:26.531Z,8.37
2023-02-23T01:52:02.212Z,8.39
2023-02-23T01:54:38.633Z,8.38
2023-02-23T01:57:13.292Z,8.42
2023-02-23T01:59:46.823Z,8.45
2023-02-23T02:02:15.911Z,8.48
2023-02-23T02:04:44.588Z,8.44
2023-02-23T02:07:23.825Z,8.38
2023-02-23T02:10:11.499Z,8.34
2023-02-23T02:12:58.568Z,8.31
2023-02-23T02:15:38.672Z,8.31
2023-02-23T02:18:42.719Z,8.33
2023-02-23T02:22:04.915Z,8.40
2023-02-23T02:25:06.968Z,8.45
2023-02-23T02:28:27.352Z,8.37
2023-02-23T02:31:19.806Z,8.35
2023-02-23T02:34:22.429Z,8.37
2023-02-23T02:37:22.993Z,8.40
2023-02-23T02:40:18.180Z,8.42
2023-02-23T02:43:10.216Z,8.44
2023-02-23T02:45:59.086Z,8.48
2023-02-23T02:49:10.953Z,8.51
2023-02-23T02:52:08.826Z,8.49
2023-02-23T02:55:09.379Z,8.47
2023-02-23T02:57:37.845Z,8.48
2023-02-23T03:00:24.300Z,8.47
2023-02-23T03:03:09.584Z,8.40
2023-02-23T03:06:08.568Z,8.37
2023-02-23T03:09:13.277Z,8.36
2023-02-23T03:12:24.366Z,8.29
2023-02-23T03:15:47.889Z,8.36
2023-02-23T03:19:02.278Z,8.47
2023-02-23T03:22:07.921Z,8.40
2023-02-23T03:24:53.021Z,8.32
2023-02-23T03:28:15.051Z,8.34
2023-02-23T03:31:19.555Z,8.36
2023-02-23T03:34:14.378Z,8.35
2023-02-23T03:37:10.216Z,8.36
2023-02-23T03:40:09.655Z,8.38
2023-02-23T03:42:58.588Z,8.36
2023-02-23T03:45:48.705Z,8.33
2023-02-23T03:48:39.597Z,8.33
2023-02-23T03:51:30.421Z,8.30
2023-02-23T03:54:32.061Z,8.24
2023-02-23T03:57:22.067Z,8.23
2023-02-23T04:00:20.152Z,8.26
2023-02-23T04:03:11.781Z,8.28
2023-02-23T04:06:00.190Z,8.32
2023-02-23T04:08:54.190Z,8.32
2023-02-23T04:11:54.837Z,8.30
2023-02-23T04:15:11.144Z,8.26
2023-02-23T04:17:39.374Z,8.28
2023-02-23T04:20:07.080Z,8.25
2023-02-23T04:22:35.675Z,8.24
2023-02-23T04:25:02.638Z,8.29
2023-02-23T04:27:29.455Z,8.28
2023-02-23T04:29:56.213Z,8.27
2023-02-23T04:32:23.115Z,8.28
2023-02-23T04:34:50.152Z,8.20
2023-02-23T04:37:16.965Z,8.19
2023-02-23T04:39:48.420Z,8.19
2023-02-23T04:42:18.323Z,8.25
2023-02-23T04:44:46.184Z,8.27
2023-02-23T04:47:15.630Z,8.25
2023-02-23T04:49:43.881Z,8.26
2023-02-23T04:52:10.656Z,8.26
2023-02-23T04:54:43.811Z,8.28
2023-02-23T04:57:11.400Z,8.28
2023-02-23T04:59:38.223Z,8.20
2023-02-23T05:02:05.258Z,8.17
2023-02-23T05:04:35.252Z,8.19
2023-02-23T05:07:03.617Z,8.18
2023-02-23T05:09:31.774Z,8.15
2023-02-23T05:11:58.949Z,8.16
2023-02-23T05:14:25.919Z,8.15
2023-02-23T05:16:55.884Z,8.14
2023-02-23T05:19:23.021Z,8.16
2023-02-23T05:21:50.612Z,8.18
2023-02-23T05:24:18.866Z,8.20
2023-02-23T05:26:45.774Z,8.15
2023-02-23T05:29:13.080Z,8.11
2023-02-23T05:31:40.719Z,8.13
2023-02-23T05:34:10.699Z,8.12
2023-02-23T05:36:38.085Z,8.13
2023-02-23T05:39:04.975Z,8.14
2023-02-23T05:41:31.728Z,8.13
2023-02-23T05:43:58.511Z,8.13
2023-02-23T05:46:27.423Z,8.14
2023-02-23T05:49:00.713Z,8.13
2023-02-23T05:51:30.887Z,8.11
2023-02-23T05:53:58.273Z,8.14
2023-02-23T05:56:26.205Z,8.14
2023-02-23T05:59:00.112Z,8.16
2023-02-23T06:01:27.976Z,8.15
2023-02-23T06:03:56.248Z,8.15
2023-02-23T06:06:25.619Z,8.14
2023-02-23T06:08:53.249Z,8.07
2023-02-23T06:11:20.590Z,8.02
2023-02-23T06:13:49.992Z,8.02
2023-02-23T06:16:16.894Z,8.05
2023-02-23T06:18:44.199Z,8.03
2023-02-23T06:21:11.003Z,8.01
2023-02-23T06:23:38.015Z,7.95
2023-02-23T06:26:08.317Z,7.97
2023-02-23T06:28:35.466Z,7.99
2023-02-23T06:31:02.678Z,7.98
2023-02-23T06:33:29.787Z,8.01
2023-02-23T06:35:56.612Z,8.02
2023-02-23T06:38:23.948Z,8.05
2023-02-23T06:40:50.839Z,7.99
2023-02-23T06:43:17.704Z,7.94
2023-02-23T06:45:46.514Z,7.89
2023-02-23T06:48:13.355Z,7.90
2023-02-23T06:50:40.273Z,7.89
2023-02-23T06:53:07.147Z,7.93
2023-02-23T06:55:34.009Z,7.99
2023-02-23T06:58:01.027Z,8.00
2023-02-23T07:00:27.809Z,8.00
2023-02-23T07:02:55.005Z,8.03
2023-02-23T07:05:22.762Z,8.03
2023-02-23T07:07:49.619Z,8.05
2023-02-23T07:10:16.927Z,8.05
2023-02-23T07:12:44.419Z,8.06
2023-02-23T07:15:11.764Z,8.11
2023-02-23T07:17:38.646Z,8.11
2023-02-23T07:20:06.350Z,8.15
2023-02-23T07:22:35.201Z,8.10
2023-02-23T07:25:02.120Z,8.11
2023-02-23T07:27:29.014Z,8.16
2023-02-23T07:29:55.888Z,8.18
2023-02-23T07:32:22.900Z,8.23
2023-02-23T07:34:49.809Z,8.26
2023-02-23T07:37:18.001Z,8.32
2023-02-23T07:39:44.752Z,8.36
2023-02-23T07:42:11.797Z,8.42
2023-02-23T07:44:42.200Z,8.44
2023-02-23T07:47:09.010Z,8.46
2023-02-23T07:49:35.754Z,8.46
2023-02-23T07:52:05.493Z,8.48
2023-02-23T07:54:32.670Z,8.47
2023-02-23T07:57:00.216Z,8.47
2023-02-23T07:59:27.798Z,8.56
2023-02-23T08:01:54.684Z,8.60
2023-02-23T08:04:21.773Z,8.63
2023-02-23T08:06:48.660Z,8.66
2023-02-23T08:09:15.532Z,8.69
2023-02-23T08:11:45.217Z,8.70
2023-02-23T08:14:16.427Z,8.74
2023-02-23T08:16:43.173Z,8.80
2023-02-23T08:19:10.279Z,8.85
2023-02-23T08:21:37.285Z,8.90
2023-02-23T08:24:04.403Z,8.99
2023-02-23T08:26:31.227Z,9.07
2023-02-23T08:28:58.267Z,9.11
2023-02-23T08:31:27.474Z,9.14
2023-02-23T08:33:54.429Z,9.20
2023-02-23T08:36:21.627Z,9.28
2023-02-23T08:38:48.973Z,9.39
2023-02-23T08:41:16.536Z,9.48
2023-02-23T08:43:44.112Z,9.56
2023-02-23T08:46:11.441Z,9.59
2023-02-23T08:48:40.434Z,9.62
2023-02-23T08:51:08.513Z,9.66
2023-02-23T08:53:36.423Z,9.83
2023-02-23T08:56:07.110Z,9.86
2023-02-23T08:58:37.058Z,9.96
2023-02-23T09:01:05.006Z,10.14
2023-02-23T09:03:35.255Z,10.24
2023-02-23T09:06:13.229Z,10.38
2023-02-23T09:08:40.199Z,10.46
2023-02-23T09:11:07.113Z,10.54
2023-02-23T09:13:34.087Z,10.60
2023-02-23T09:16:00.978Z,10.61
2023-02-23T09:18:29.448Z,10.68
2023-02-23T09:20:57.058Z,10.77
2023-02-23T09:23:28.151Z,10.83
2023-02-23T09:25:54.990Z,10.85
2023-02-23T09:28:22.147Z,10.81
2023-02-23T09:30:49.172Z,10.81
2023-02-23T09:33:17.348Z,10.85
2023-02-23T09:35:44.272Z,10.91
2023-02-23T09:38:11.013Z,11.00
2023-02-23T09:40:53.134Z,11.03
2023-02-23T09:43:40.843Z,11.08
2023-02-23T09:46:51.165Z,11.10
2023-02-23T09:49:24.503Z,11.14
2023-02-23T09:51:58.810Z,11.22
2023-02-23T09:54:32.677Z,11.30
2023-02-23T09:57:06.545Z,11.42
2023-02-23T09:59:34.941Z,11.50
2023-02-23T10:02:34.382Z,11.60
2023-02-23T10:05:09.808Z,11.63
2023-02-23T10:07:54.039Z,11.70
2023-02-23T10:10:49.270Z,11.76
2023-02-23T10:14:09.848Z,11.76
2023-02-23T10:16:51.228Z,11.79
2023-02-23T10:19:53.404Z,11.83
2023-02-23T10:22:21.530Z,11.89
2023-02-23T10:24:57.726Z,11.94
2023-02-23T10:27:41.984Z,12.01
2023-02-23T10:30:35.450Z,11.98
2023-02-23T10:33:16.983Z,11.99
2023-02-23T10:35:45.222Z,12.01
2023-02-23T10:38:19.910Z,12.02
2023-02-23T10:40:55.865Z,12.06
2023-02-23T10:43:23.551Z,12.00
2023-02-23T10:45:53.636Z,12.00
2023-02-23T10:48:43.210Z,11.98
2023-02-23T10:51:32.408Z,12.04
2023-02-23T10:54:34.254Z,12.04
2023-02-23T10:57:02.016Z,12.01
2023-02-23T10:59:29.276Z,11.98
2023-02-23T11:02:02.224Z,12.00
2023-02-23T11:04:35.079Z,12.06
2023-02-23T11:07:23.203Z,12.19
2023-02-23T11:09:51.890Z,12.31
2023-02-23T11:12:37.773Z,12.42
2023-02-23T11:15:35.244Z,12.51
2023-02-23T11:18:06.834Z,12.59
2023-02-23T11:20:38.436Z,12.66
2023-02-23T11:23:28.833Z,12.75
2023-02-23T11:26:01.291Z,12.82
2023-02-23T11:28:41.119Z,12.94
2023-02-23T11:31:28.402Z,13.08
2023-02-23T11:33:57.433Z,13.19
2023-02-23T11:36:24.133Z,13.15
2023-02-23T11:39:19.973Z,13.21
2023-02-23T11:41:46.940Z,13.11
2023-02-23T11:44:25.213Z,12.98
2023-02-23T11:46:52.529Z,12.91
2023-02-23T11:49:29.253Z,12.90
2023-02-23T11:51:59.323Z,12.90
2023-02-23T11:54:33.681Z,12.94
2023-02-23T11:57:02.906Z,12.91
2023-02-23T11:59:38.170Z,12.90
2023-02-23T12:02:23.240Z,12.90
2023-02-23T12:05:05.050Z,12.96
2023-02-23T12:07:51.212Z,13.02
2023-02-23T12:10:34.308Z,13.14
2023-02-23T12:13:07.320Z,13.30
2023-02-23T12:15:59.883Z,13.33
2023-02-23T12:18:46.666Z,13.30
2023-02-23T12:21:39.785Z,13.20
2023-02-23T12:24:28.356Z,13.10
2023-02-23T12:27:01.575Z,13.01
2023-02-23T12:29:52.167Z,12.94
2023-02-23T12:33:02.322Z,12.94
2023-02-23T12:36:21.330Z,12.88
2023-02-23T12:39:12.029Z,12.85
2023-02-23T12:41:51.317Z,12.82
2023-02-23T12:44:57.291Z,12.81
2023-02-23T12:47:42.145Z,12.80
2023-02-23T12:50:26.349Z,12.79
2023-02-23T12:53:46.359Z,12.81
2023-02-23T12:56:34.142Z,12.85
2023-02-23T12:59:32.976Z,12.90
2023-02-23T13:02:22.013Z,12.85
2023-02-23T13:05:13.071Z,12.80
2023-02-23T13:07:57.249Z,12.75
2023-02-23T13:11:16.819Z,12.61
2023-02-23T13:13:52.649Z,12.53
2023-02-23T13:16:33.111Z,12.53
2023-02-23T13:19:21.386Z,12.70
2023-02-23T13:22:24.928Z,13.15
2023-02-23T13:24:58.378Z,13.62
2023-02-23T13:27:37.573Z,13.62
2023-02-23T13:30:10.172Z,13.52
2023-02-23T13:32:38.821Z,13.43
2023-02-23T13:35:20.361Z,13.15
2023-02-23T13:37:59.606Z,13.12
2023-02-23T13:40:51.980Z,13.10
2023-02-23T13:43:32.488Z,13.05
2023-02-23T13:46:21.661Z,12.94
2023-02-23T13:49:02.901Z,12.85
2023-02-23T13:51:52.022Z,12.76
2023-02-23T13:54:32.297Z,12.64
2023-02-23T13:57:05.570Z,12.64
2023-02-23T13:59:42.936Z,12.64
2023-02-23T14:02:40.894Z,12.67
2023-02-23T14:05:18.438Z,12.66
2023-02-23T14:07:52.687Z,12.65
2023-02-23T14:10:27.712Z,12.63
2023-02-23T14:13:21.093Z,12.62
2023-02-23T14:15:53.531Z,12.62
2023-02-23T14:18:26.243Z,12.54
2023-02-23T14:21:09.488Z,12.45
2023-02-23T14:23:51.989Z,12.33
2023-02-23T14:26:30.128Z,12.19
2023-02-23T14:29:27.696Z,12.05
2023-02-23T14:32:00.873Z,11.89
2023-02-23T14:34:46.155Z,11.80
2023-02-23T14:37:32.883Z,11.78
2023-02-23T14:40:19.256Z,11.83
2023-02-23T14:42:59.936Z,11.88
2023-02-23T14:45:32.464Z,11.91
2023-02-23T14:48:06.800Z,11.93
2023-02-23T14:50:36.624Z,11.85
2023-02-23T14:53:09.491Z,11.75
2023-02-23T14:55:41.982Z,11.69
2023-02-23T14:58:30.256Z,11.58
2023-02-23T15:00:57.138Z,11.57
2023-02-23T15:03:23.970Z,11.58
2023-02-23T15:06:01.188Z,11.54
2023-02-23T15:08:31.636Z,11.49
2023-02-23T15:11:04.837Z,11.47
2023-02-23T15:13:41.832Z,11.46
2023-02-23T15:16:24.205Z,11.46
2023-02-23T15:18:53.263Z,11.46
2023-02-23T15:21:23.874Z,11.40
2023-02-23T15:23:59.527Z,11.38
2023-02-23T15:26:36.124Z,11.37
2023-02-23T15:29:15.426Z,11.39
2023-02-23T15:31:54.382Z,11.41
2023-02-23T15:34:26.324Z,11.40
2023-02-23T15:37:10.526Z,11.40
2023-02-23T15:40:06.115Z,11.41
2023-02-23T15:42:50.565Z,11.47
2023-02-23T15:45:54.410Z,11.51
2023-02-23T15:48:26.739Z,11.55
2023-02-23T15:50:57.848Z,11.53
2023-02-23T15:53:35.990Z,11.52
2023-02-23T15:56:20.041Z,11.45
2023-02-23T15:58:57.022Z,11.45
2023-02-23T16:01:28.698Z,11.48
2023-02-23T16:04:13.171Z,11.49
2023-02-23T16:07:11.695Z,11.53
2023-02-23T16:09:39.473Z,11.53
2023-02-23T16:12:21.363Z,11.46
2023-02-23T16:14:58.979Z,11.49
2023-02-23T16:17:44.602Z,11.47
2023-02-23T16:20:43.685Z,11.47
2023-02-23T16:23:33.273Z,11.47
2023-02-23T16:26:11.891Z,11.42
2023-02-23T16:28:46.361Z,11.39
2023-02-23T16:31:25.612Z,11.35
2023-02-23T16:33:59.868Z,11.30
2023-02-23T16:36:39.759Z,11.27
2023-02-23T16:39:17.331Z,11.26
2023-02-23T16:41:47.373Z,11.25
2023-02-23T16:44:21.709Z,11.26
2023-02-23T16:46:56.268Z,11.24
2023-02-23T16:49:23.586Z,11.21
2023-02-23T16:51:51.676Z,11.17
2023-02-23T16:54:18.579Z,11.14
2023-02-23T16:56:48.243Z,11.08
2023-02-23T16:59:18.860Z,11.06
2023-02-23T17:01:47.759Z,11.00
2023-02-23T17:04:17.240Z,10.97
2023-02-23T17:06:52.792Z,10.93
2023-02-23T17:09:19.718Z,10.90
2023-02-23T17:11:47.242Z,10.91
2023-02-23T17:14:28.171Z,10.91
2023-02-23T17:17:00.703Z,10.89
2023-02-23T17:19:30.215Z,10.89
2023-02-23T17:21:57.341Z,10.91
2023-02-23T17:24:26.130Z,10.89
2023-02-23T17:26:53.492Z,10.87
2023-02-23T17:29:20.469Z,10.83
2023-02-23T17:31:47.516Z,10.78
2023-02-23T17:34:14.652Z,10.76
2023-02-23T17:36:41.405Z,10.76
2023-02-23T17:39:09.791Z,10.75
2023-02-23T17:41:39.090Z,10.76
2023-02-23T17:44:05.977Z,10.77
2023-02-23T17:46:32.971Z,10.72
2023-02-23T17:48:59.783Z,10.68
2023-02-23T17:51:26.673Z,10.67
2023-02-23T17:53:54.000Z,10.68
2023-02-23T17:56:21.028Z,10.63
2023-02-23T17:58:48.276Z,10.62
2023-02-23T18:01:16.309Z,10.60
2023-02-23T18:03:43.894Z,10.58
2023-02-23T18:06:13.418Z,10.58
2023-02-23T18:08:42.927Z,10.52
2023-02-23T18:11:10.350Z,10.56
2023-02-23T18:13:37.389Z,10.53
2023-02-23T18:16:10.721Z,10.53
2023-02-23T18:18:46.451Z,10.51
2023-02-23T18:21:17.693Z,10.49
2023-02-23T18:23:45.389Z,10.46
2023-02-23T18:26:16.186Z,10.43
2023-02-23T18:28:46.882Z,10.37
2023-02-23T18:31:28.180Z,10.36
2023-02-23T18:34:04.868Z,10.37
2023-02-23T18:36:35.778Z,10.42
2023-02-23T18:39:07.333Z,10.39
2023-02-23T18:41:34.269Z,10.41
2023-02-23T18:44:05.304Z,10.39
2023-02-23T18:46:35.485Z,10.36
2023-02-23T18:49:03.877Z,10.35
2023-02-23T18:51:30.916Z,10.36
2023-02-23T18:53:57.714Z,10.37
2023-02-23T18:56:28.201Z,10.38
2023-02-23T18:59:01.543Z,10.36
2023-02-23T19:01:37.486Z,10.35
2023-02-23T19:04:07.461Z,10.38
2023-02-23T19:06:37.507Z,10.37
2023-02-23T19:09:09.658Z,10.38
2023-02-23T19:11:37.760Z,10.38
2023-02-23T19:14:11.212Z,10.35
2023-02-23T19:16:38.777Z,10.33
2023-02-23T19:19:07.643Z,10.33
2023-02-23T19:21:36.229Z,10.29
2023-02-23T19:24:04.968Z,10.23
2023-02-23T19:26:33.798Z,10.20
2023-02-23T19:29:01.047Z,10.21
2023-02-23T19:31:28.750Z,10.20
2023-02-23T19:33:59.729Z,10.17
2023-02-23T19:36:33.813Z,10.18
2023-02-23T19:39:10.465Z,10.18
2023-02-23T19:41:40.201Z,10.13
2023-02-23T19:44:07.503Z,10.12
2023-02-23T19:46:35.132Z,10.12
2023-02-23T19:49:03.058Z,10.13
2023-02-23T19:51:33.034Z,10.12
2023-02-23T19:54:00.071Z,10.05
2023-02-23T19:56:28.498Z,10.02
2023-02-23T19:58:57.619Z,10.04
2023-02-23T20:01:29.986Z,10.05
2023-02-23T20:04:06.960Z,10.06
2023-02-23T20:06:41.113Z,10.05
2023-02-23T20:09:09.072Z,10.06
2023-02-23T20:11:36.198Z,10.08
2023-02-23T20:14:05.143Z,10.04
2023-02-23T20:16:35.164Z,9.98
2023-02-23T20:19:03.801Z,9.92
2023-02-23T20:21:32.313Z,9.93
2023-02-23T20:24:01.567Z,9.98
2023-02-23T20:26:35.239Z,9.95
2023-02-23T20:29:06.702Z,9.97
2023-02-23T20:31:37.407Z,9.98
2023-02-23T20:34:10.845Z,9.98
2023-02-23T20:36:38.660Z,10.01
2023-02-23T20:39:06.010Z,9.95
2023-02-23T20:41:33.194Z,9.95
2023-02-23T20:44:01.162Z,9.88
2023-02-23T20:46:30.399Z,9.90
2023-02-23T20:48:59.195Z,9.87
2023-02-23T20:51:26.853Z,9.89
2023-02-23T20:53:54.274Z,9.87
2023-02-23T20:56:23.894Z,9.85
2023-02-23T20:58:54.614Z,9.83
2023-02-23T21:01:25.754Z,9.82
2023-02-23T21:03:55.195Z,9.80
2023-02-23T21:06:25.120Z,9.81
2023-02-23T21:08:55.755Z,9.83
2023-02-23T21:11:27.304Z,9.83
2023-02-23T21:13:54.328Z,9.83
2023-02-23T21:16:26.159Z,9.88
2023-02-23T21:19:03.899Z,9.90
2023-02-23T21:21:38.931Z,9.90
2023-02-23T21:24:06.500Z,9.87
2023-02-23T21:26:33.367Z,9.80
2023-02-23T21:29:00.151Z,9.81
2023-02-23T21:31:27.209Z,9.80
2023-02-23T21:33:57.269Z,9.78
2023-02-23T21:36:24.224Z,9.76
2023-02-23T21:38:51.368Z,9.74
2023-02-23T21:41:18.857Z,9.75
2023-02-23T21:43:46.563Z,9.76
2023-02-23T21:46:16.385Z,9.76
2023-02-23T21:48:43.923Z,9.80
2023-02-23T21:51:15.867Z,9.78
2023-02-23T21:53:46.415Z,9.79
2023-02-23T21:56:22.263Z,9.71
2023-02-23T21:58:54.952Z,9.70
2023-02-23T22:01:37.699Z,9.75
2023-02-23T22:04:07.774Z,9.74
2023-02-23T22:06:40.445Z,9.71
2023-02-23T22:09:15.384Z,9.72
2023-02-23T22:11:47.518Z,9.70
2023-02-23T22:14:16.655Z,9.70
2023-02-23T22:16:44.215Z,9.71
2023-02-23T22:19:12.628Z,9.70
2023-02-23T22:21:41.812Z,9.71
2023-02-23T22:24:16.874Z,9.72
2023-02-23T22:26:55.880Z,9.69
2023-02-23T22:29:25.722Z,9.71
2023-02-23T22:31:52.980Z,9.68
2023-02-23T22:34:22.328Z,9.66
2023-02-23T22:36:50.193Z,9.67
2023-02-23T22:39:19.539Z,9.66
2023-02-23T22:41:48.092Z,9.67
2023-02-23T22:44:21.357Z,9.66
2023-02-23T22:46:48.784Z,9.66
2023-02-23T22:49:16.413Z,9.68
2023-02-23T22:51:44.207Z,9.69
2023-02-23T22:54:16.108Z,9.70
2023-02-23T22:56:42.952Z,9.69
2023-02-23T22:59:11.155Z,9.70
2023-02-23T23:01:39.161Z,9.63
2023-02-23T23:04:10.378Z,9.61
2023-02-23T23:06:43.101Z,9.63
2023-02-23T23:09:12.327Z,9.63
2023-02-23T23:11:42.443Z,9.63
2023-02-23T23:14:11.304Z,9.61
2023-02-23T23:16:48.451Z,9.57
2023-02-23T23:19:25.954Z,9.56
2023-02-23T23:21:55.995Z,9.58
2023-02-23T23:24:25.523Z,9.55
2023-02-23T23:27:00.203Z,9.56
2023-02-23T23:29:32.754Z,9.57
2023-02-23T23:32:01.543Z,9.61
2023-02-23T23:34:28.557Z,9.63
2023-02-23T23:36:56.856Z,9.63
2023-02-23T23:39:26.322Z,9.62
2023-02-23T23:41:56.684Z,9.60
2023-02-23T23:44:29.178Z,9.61
2023-02-23T23:46:56.844Z,9.59
2023-02-23T23:49:25.710Z,9.57
2023-02-23T23:51:56.929Z,9.54
2023-02-23T23:54:28.878Z,9.50
2023-02-23T23:56:57.438Z,9.51
2023-02-23T23:59:28.776Z,9.49
